Garrett, PA

5:44 PM EST on December 06, 2016 (GMT -0500)
Buffalo Creek Rd. | | Change Station
Active Advisory: Ice Storm Warning Active Notice: Local Storm Report

Elev 2083 ft 39.90 °N, 78.99 °W | Updated 16 seconds ago

Overcast
Overcast
34.2 °F
Feels Like 31 °F
N
3.6
Wind Variable Wind from SSE
Gusts 4.9 mph

Today
High -- | Low -- °F
--% Chance of Precip.
Yesterday
High -- | Low -- °F
Precip. -- in
Pressure 29.74 in
Visibility 4.0 miles
Clouds Overcast 400 ft
Windchill 31 °F
Dew Point 34 °F
Humidity 98%
Rainfall 0.37 in
Snow Depth Not available.
7:23 AM 4:51 PM
Waxing Crescent, 46% visible
METAR K2G4 062220Z AUTO 14003KT 4SM BR OVC004 00/00 A2974 RMK AO1
Pressure 29.74 in
Visibility 4.0 miles
Clouds Overcast 400 ft
Windchill 31 °F
Dew Point 34 °F
Humidity 98%
Rainfall 0.37 in
Snow Depth Not available.
7:23 AM 4:51 PM
Waxing Crescent, 46% visible
METAR K2G4 062220Z AUTO 14003KT 4SM BR OVC004 00/00 A2974 RMK AO1

10-Day Weather Forecast

Almanac

Astronomy

Dec. 06, 2016 Rise Set
Actual Time
Civil Twilight
Nautical Twilight
Astronomical Twilight
Moon
Length of Visible Light
Length of Day
Tomorrow will be .
, % of the Moon is Illuminated

Today's Extremes

State Highs State Lows

Community

WunderPhotos

Upload Photos

1,956,042 photos uploaded!

WunderBlog® & News

Nearby

Air Quality

  Air Quality AQ Index Pollutant
Not available.

Snow Depth

Station Depth Elevation

Earthquake Activity

City Distance Mag. Time & Date
Minimum magnitude displayed is 2.5.

Coastal Water Temperatures

Place Temperature

Stations

Nearby Weather Stations

Station Location Temp. Windchill Dew Point Humidity Wind Precip. Elev Updated Type
                   

Watches & Warnings

Ice Storm Warning
Issued: 4:40 PM EST Dec. 6, 2016 – National Weather Service

... Ice Storm Warning remains in effect until midnight EST
tonight...

* locations... Cambria and Somerset counties... especially the
higher elevations.

* Hazard types... freezing rain... along with some sleet and wet
snow.

* Ice accumulations... around one quarter of an inch.

* Timing... rain and freezing rain will continue across the area
this afternoon and evening. Sleet and wet snow will occasionally
mix in... and could whiten the ground in some places. Ice will
continue to accumulate on surfaces until around midnight.

* Impacts... ice and snow accumulations will create treacherous
driving conditions. The weight of the ice and snow on tree
limbs and power lines could produce numerous outages.

* Winds... southeast 10 to 20 mph with gusts up to 30 mph.

* Temperatures... in the lower and mid 30s.

Precautionary/preparedness actions...

The Pennsylvania Department of Transportation reminds motorists
to adjust speeds based on driving conditions and to take it slow
in snow and ice.